Time;durP1;ratioP1;P1;durP2;ratioP2;P2;SDS_P1;SDS_P2;PMS_P1;PMS_P2;Temp;Humidity;BMP_temperature;BMP_pressure;BME280_temperature;BME280_humidity;BME280_pressure;Samples;Min_cycle;Max_cycle;Signal;HPM_P1;HPM_P2
2022/06/06 00:01:41;;;;;;;10.10;6.70;;;15.80;99.90;;;;;;5032917;28;20616;-84
2022/06/06 00:04:10;;;;;;;9.90;6.00;;;15.70;99.90;;;;;;5033141;28;20245;-84
2022/06/06 00:06:39;;;;;;;8.47;6.33;;;15.70;99.90;;;;;;5031840;28;20225;-79
2022/06/06 00:09:08;;;;;;;8.07;6.37;;;15.70;99.90;;;;;;5032490;28;20191;-83
2022/06/06 00:11:36;;;;;;;8.03;6.33;;;15.60;99.90;;;;;;5032521;28;20231;-83
2022/06/06 00:14:04;;;;;;;9.43;6.70;;;15.60;99.90;;;;;;5031371;28;20657;-66
2022/06/06 00:16:32;;;;;;;14.20;7.20;;;15.50;99.90;;;;;;5031248;28;20187;-84
2022/06/06 00:19:04;;;;;;;10.63;7.20;;;15.50;99.90;;;;;;5031049;28;20660;-83
2022/06/06 00:21:33;;;;;;;9.50;7.00;;;15.50;99.90;;;;;;5031217;28;20227;-84
2022/06/06 00:24:01;;;;;;;11.90;7.30;;;15.40;99.90;;;;;;5031338;28;20200;-84
2022/06/06 00:26:30;;;;;;;11.33;6.57;;;15.40;99.90;;;;;;5031405;28;20333;-86
2022/06/06 00:28:57;;;;;;;9.10;7.13;;;15.40;99.90;;;;;;5032240;28;20241;-85
2022/06/06 00:36:59;;;;;;;12.37;7.10;;;15.20;99.90;;;;;;5031289;28;20203;-87
2022/06/06 00:39:26;;;;;;;8.90;6.77;;;15.30;99.90;;;;;;5032367;28;20198;-64
2022/06/06 00:41:56;;;;;;;14.00;8.03;;;15.20;99.90;;;;;;5033443;28;20222;-85
2022/06/06 00:44:29;;;;;;;11.80;7.47;;;15.10;99.90;;;;;;5034864;28;20290;-86
2022/06/06 00:47:08;;;;;;;10.27;8.03;;;15.10;99.90;;;;;;5035365;28;20199;-85
2022/06/06 00:49:43;;;;;;;10.80;7.37;;;15.10;99.90;;;;;;5037730;28;20191;-84
2022/06/06 00:52:35;;;;;;;12.87;8.27;;;15.10;99.90;;;;;;5046647;28;20218;-81
2022/06/06 00:55:15;;;;;;;11.77;8.53;;;15.00;99.90;;;;;;5042379;28;20238;-79
2022/06/06 00:57:50;;;;;;;11.90;8.40;;;14.90;99.90;;;;;;5034746;28;20203;-83
2022/06/06 01:00:20;;;;;;;17.37;8.90;;;15.00;99.90;;;;;;5034419;28;20293;-80
2022/06/06 01:02:52;;;;;;;14.60;9.00;;;14.90;99.90;;;;;;5034341;28;20293;-82
2022/06/06 01:05:21;;;;;;;16.30;8.80;;;14.80;99.90;;;;;;5034103;28;20219;-83
2022/06/06 01:07:48;;;;;;;14.57;8.90;;;14.80;99.90;;;;;;5034242;28;20202;-81
2022/06/06 01:10:16;;;;;;;13.53;8.60;;;14.90;99.90;;;;;;5034376;28;20200;-83
2022/06/06 01:12:47;;;;;;;12.03;8.50;;;14.90;99.90;;;;;;5036781;28;20711;-83
2022/06/06 01:15:16;;;;;;;14.07;8.53;;;14.80;99.90;;;;;;5035177;28;20633;-84
2022/06/06 01:18:13;;;;;;;14.07;8.97;;;14.80;99.90;;;;;;5034585;28;20291;-82
2022/06/06 01:20:56;;;;;;;12.50;8.80;;;14.70;99.90;;;;;;5034832;28;20322;-83
2022/06/06 01:23:35;;;;;;;14.27;9.03;;;14.70;99.90;;;;;;5034510;28;20190;-70
2022/06/06 01:26:28;;;;;;;14.17;8.20;;;14.70;99.90;;;;;;5034239;28;20313;-85
2022/06/06 01:29:04;;;;;;;12.43;9.00;;;14.60;99.90;;;;;;5034208;28;20226;-83
2022/06/06 01:31:38;;;;;;;11.47;8.43;;;14.60;99.90;;;;;;5034050;28;20209;-83
2022/06/06 01:34:07;;;;;;;12.90;8.87;;;14.60;99.90;;;;;;5033813;28;20231;-84
2022/06/06 01:36:36;;;;;;;15.53;9.00;;;14.60;99.90;;;;;;5033712;28;20209;-84
2022/06/06 01:39:08;;;;;;;13.43;8.43;;;14.60;99.90;;;;;;5033839;28;20294;-78
2022/06/06 01:41:44;;;;;;;11.70;8.40;;;14.60;99.90;;;;;;5033665;28;20223;-85
2022/06/06 01:44:19;;;;;;;12.70;9.03;;;14.50;99.90;;;;;;5033517;28;20205;-84
2022/06/06 01:46:47;;;;;;;10.53;8.00;;;14.50;99.90;;;;;;5033565;28;20265;-82
2022/06/06 01:49:15;;;;;;;12.60;8.73;;;14.40;99.90;;;;;;5033362;28;20238;-83
2022/06/06 01:51:43;;;;;;;12.60;8.40;;;14.40;99.90;;;;;;5033544;28;20203;-83
2022/06/06 01:54:15;;;;;;;14.07;9.10;;;14.30;99.90;;;;;;5032402;28;20191;-83
2022/06/06 01:56:43;;;;;;;11.30;8.60;;;14.30;99.90;;;;;;5034874;28;20257;-81
2022/06/06 01:59:09;;;;;;;13.30;8.83;;;14.30;99.90;;;;;;5033503;28;20199;-79
2022/06/06 02:01:36;;;;;;;14.27;9.40;;;14.30;99.90;;;;;;5034933;28;20191;-81
2022/06/06 02:04:03;;;;;;;13.17;8.57;;;14.30;99.90;;;;;;5033506;28;20281;-82
2022/06/06 02:06:30;;;;;;;13.00;9.27;;;14.30;99.90;;;;;;5033564;28;20219;-83
2022/06/06 02:08:57;;;;;;;13.47;8.93;;;14.30;99.90;;;;;;5034311;28;20277;-78
2022/06/06 02:11:24;;;;;;;14.20;9.13;;;14.20;99.90;;;;;;5034383;28;20270;-81
2022/06/06 02:13:51;;;;;;;13.77;9.23;;;14.20;99.90;;;;;;5033150;28;20659;-81
2022/06/06 02:16:18;;;;;;;14.50;9.50;;;14.10;99.90;;;;;;5034089;28;20223;-84
2022/06/06 02:18:45;;;;;;;15.67;9.47;;;14.10;99.90;;;;;;5033516;28;20248;-82
2022/06/06 02:21:12;;;;;;;15.80;9.07;;;14.10;99.90;;;;;;5034748;28;20238;-78
2022/06/06 02:23:39;;;;;;;13.60;9.50;;;14.10;99.90;;;;;;5035181;28;20234;-83
2022/06/06 02:26:07;;;;;;;12.23;9.30;;;14.10;99.90;;;;;;5033985;28;20578;-84
2022/06/06 02:28:39;;;;;;;12.97;9.63;;;14.10;99.90;;;;;;5034510;28;20693;-82
2022/06/06 02:31:06;;;;;;;14.53;9.40;;;14.00;99.90;;;;;;5033998;28;20652;-64
2022/06/06 02:33:34;;;;;;;13.17;9.90;;;14.00;99.90;;;;;;5034102;28;20609;-64
2022/06/06 02:36:01;;;;;;;16.80;10.60;;;14.00;99.90;;;;;;5032643;28;20551;-64
2022/06/06 02:38:29;;;;;;;15.00;9.93;;;13.90;99.90;;;;;;5032624;28;20191;-63
2022/06/06 02:41:07;;;;;;;12.90;9.60;;;13.90;99.90;;;;;;5033671;28;20207;-67
2022/06/06 02:43:40;;;;;;;12.90;9.37;;;13.90;99.90;;;;;;5032477;28;20195;-64
2022/06/06 02:46:09;;;;;;;14.10;10.17;;;14.00;99.90;;;;;;5032379;28;20237;-66
2022/06/06 02:48:38;;;;;;;15.60;10.00;;;14.00;99.90;;;;;;5032304;28;20518;-63
2022/06/06 02:51:05;;;;;;;14.40;9.57;;;14.00;99.90;;;;;;5031920;28;20226;-64
2022/06/06 02:53:32;;;;;;;14.00;9.97;;;14.00;99.90;;;;;;5016377;28;20200;-63
2022/06/06 02:56:00;;;;;;;14.33;9.27;;;14.00;99.90;;;;;;5032285;28;20550;-64
2022/06/06 02:58:28;;;;;;;11.07;8.80;;;14.00;99.90;;;;;;5033348;28;20222;-84
2022/06/06 03:01:07;;;;;;;13.07;9.70;;;14.10;99.90;;;;;;5032444;28;20213;-71
2022/06/06 03:03:35;;;;;;;14.47;10.03;;;14.10;99.90;;;;;;5032114;28;20703;-68
2022/06/06 03:06:05;;;;;;;13.20;9.80;;;14.10;99.90;;;;;;5031495;28;20314;-79
2022/06/06 03:09:11;;;;;;;12.13;9.60;;;14.20;99.90;;;;;;5031985;28;20206;-64
2022/06/06 03:12:04;;;;;;;13.57;8.70;;;14.20;99.90;;;;;;4972395;28;20290;-64
2022/06/06 03:15:06;;;;;;;11.43;8.60;;;14.20;99.90;;;;;;4956159;28;20226;-76
2022/06/06 03:21:08;;;;;;;14.20;9.50;;;14.30;99.90;;;;;;4955855;28;20253;-81
2022/06/06 03:23:46;;;;;;;11.97;9.00;;;14.40;99.90;;;;;;4972282;28;20227;-81
2022/06/06 03:26:34;;;;;;;13.57;9.77;;;14.50;99.90;;;;;;4955791;28;20328;-81
2022/06/06 03:29:46;;;;;;;12.27;9.03;;;14.50;99.90;;;;;;4972004;28;20313;-83
2022/06/06 03:32:28;;;;;;;14.13;9.03;;;14.60;99.90;;;;;;4914772;29;20213;-81
2022/06/06 03:34:55;;;;;;;12.47;9.20;;;14.70;99.90;;;;;;4914755;29;20215;-82
2022/06/06 03:37:47;;;;;;;12.40;8.83;;;14.70;99.90;;;;;;4914957;29;20229;-82
2022/06/06 03:40:49;;;;;;;13.50;9.33;;;14.80;99.90;;;;;;4914679;29;20207;-81
2022/06/06 03:43:38;;;;;;;11.60;8.40;;;14.90;99.90;;;;;;4914778;29;20584;-84
2022/06/06 03:46:27;;;;;;;12.63;8.57;;;15.00;99.90;;;;;;4915778;29;20231;-83
2022/06/06 03:49:30;;;;;;;10.80;8.83;;;15.10;99.90;;;;;;4952748;29;20302;-78
2022/06/06 03:52:25;;;;;;;12.13;8.83;;;15.20;99.90;;;;;;4936746;29;20209;-88
2022/06/06 03:55:00;;;;;;;11.67;8.70;;;15.30;99.90;;;;;;4938086;29;20671;-88
2022/06/06 03:57:27;;;;;;;14.93;8.87;;;15.40;99.90;;;;;;4939127;29;20212;-84
2022/06/06 04:00:03;;;;;;;10.67;8.77;;;15.50;99.90;;;;;;4937935;29;20206;-81
2022/06/06 04:02:34;;;;;;;13.87;8.63;;;15.60;99.90;;;;;;4940219;29;20204;-82
2022/06/06 04:05:07;;;;;;;12.03;8.37;;;15.70;99.90;;;;;;4941950;28;20596;-82
2022/06/06 04:07:34;;;;;;;11.40;8.47;;;15.80;99.90;;;;;;5038062;28;20208;-81
2022/06/06 04:10:02;;;;;;;11.43;8.43;;;15.80;99.90;;;;;;5041505;28;20199;-86
2022/06/06 04:12:44;;;;;;;12.07;8.53;;;15.90;99.90;;;;;;5033262;28;20218;-85
2022/06/06 04:15:40;;;;;;;10.60;8.20;;;16.00;99.90;;;;;;5031334;28;20227;-87
2022/06/06 04:18:13;;;;;;;11.47;8.00;;;16.00;99.90;;;;;;5026278;28;20207;-86
2022/06/06 04:21:11;;;;;;;11.93;8.43;;;16.10;99.90;;;;;;5035017;28;20630;-77
2022/06/06 04:24:03;;;;;;;12.33;9.00;;;16.20;99.90;;;;;;5035234;28;20202;-78
2022/06/06 04:26:58;;;;;;;12.53;8.50;;;16.30;99.90;;;;;;5034862;28;20227;-67
2022/06/06 04:29:46;;;;;;;9.67;8.47;;;16.40;99.90;;;;;;5034816;28;20219;-82
2022/06/06 04:32:34;;;;;;;10.70;8.30;;;16.50;99.90;;;;;;5035264;28;20196;-75
2022/06/06 04:35:13;;;;;;;12.00;8.00;;;16.60;99.90;;;;;;5034692;28;20203;-80
2022/06/06 04:37:45;;;;;;;10.80;8.43;;;16.70;99.90;;;;;;5034973;28;20200;-82
2022/06/06 04:40:36;;;;;;;13.23;8.10;;;16.70;99.90;;;;;;5034856;28;20207;-82
2022/06/06 04:43:38;;;;;;;10.00;7.53;;;16.80;99.90;;;;;;5034638;28;20211;-80
2022/06/06 04:46:21;;;;;;;12.13;8.23;;;16.90;99.90;;;;;;5021339;28;20231;-77
2022/06/06 04:48:50;;;;;;;12.13;8.80;;;16.90;99.90;;;;;;5034615;28;20195;-83
2022/06/06 04:51:20;;;;;;;11.87;9.07;;;17.00;99.90;;;;;;5034519;28;20298;-82
2022/06/06 04:53:51;;;;;;;11.17;8.73;;;17.10;99.90;;;;;;5034239;28;20585;-85
2022/06/06 04:56:20;;;;;;;12.77;9.17;;;17.20;99.90;;;;;;5034476;28;20210;-82
2022/06/06 04:58:52;;;;;;;15.33;10.20;;;17.20;99.90;;;;;;5034689;28;20294;-80
2022/06/06 05:01:19;;;;;;;16.87;10.80;;;17.30;99.90;;;;;;5034446;28;20370;-80
2022/06/06 05:03:46;;;;;;;14.60;10.57;;;17.40;99.90;;;;;;5034509;28;20317;-82
2022/06/06 05:06:41;;;;;;;14.00;10.60;;;17.40;99.90;;;;;;5034313;28;20216;-79
2022/06/06 05:09:25;;;;;;;13.23;10.07;;;17.50;99.90;;;;;;5034099;28;20283;-81
2022/06/06 05:12:16;;;;;;;12.67;9.90;;;17.60;99.90;;;;;;5034730;28;20206;-80
2022/06/06 05:15:18;;;;;;;14.50;10.23;;;17.70;99.90;;;;;;5034508;28;20195;-84
2022/06/06 05:18:22;;;;;;;14.63;10.13;;;17.70;99.90;;;;;;4974480;28;20512;-83
2022/06/06 05:20:59;;;;;;;14.37;9.50;;;17.90;99.90;;;;;;4974282;28;20229;-83
2022/06/06 05:23:29;;;;;;;13.00;8.90;;;18.00;99.90;;;;;;4958239;28;20209;-83
2022/06/06 05:26:23;;;;;;;12.60;9.10;;;18.00;99.90;;;;;;4958044;28;20232;-86
2022/06/06 05:29:09;;;;;;;10.63;8.90;;;18.10;99.90;;;;;;4940885;28;20243;-83
2022/06/06 05:31:47;;;;;;;10.67;9.03;;;18.30;99.90;;;;;;4974035;28;20308;-85
2022/06/06 05:34:31;;;;;;;11.40;8.77;;;18.30;99.90;;;;;;4957804;28;20596;-86
2022/06/06 05:37:13;;;;;;;10.10;8.77;;;18.30;99.90;;;;;;4958768;28;20244;-88
2022/06/06 05:40:05;;;;;;;10.93;8.23;;;18.30;99.90;;;;;;4974895;28;20193;-86
2022/06/06 05:43:06;;;;;;;10.17;8.40;;;18.40;99.90;;;;;;4974386;28;20205;-86
2022/06/06 05:45:50;;;;;;;10.95;8.05;;;18.60;99.90;;;;;;4974708;28;20260;-85
2022/06/06 05:48:25;;;;;;;12.87;8.63;;;18.80;99.90;;;;;;4974643;28;20292;-87
2022/06/06 05:51:01;;;;;;;10.50;8.60;;;18.90;99.90;;;;;;4965237;28;20347;-66
2022/06/06 05:53:57;;;;;;;12.07;8.60;;;18.90;99.90;;;;;;5033595;28;20203;-68
2022/06/06 05:56:52;;;;;;;11.23;8.57;;;19.10;99.90;;;;;;5033819;28;20199;-72
2022/06/06 05:59:31;;;;;;;11.33;8.50;;;19.20;99.90;;;;;;5034771;28;20254;-72
2022/06/06 06:02:19;;;;;;;13.80;8.63;;;19.40;99.90;;;;;;5033803;28;20290;-65
2022/06/06 06:04:53;;;;;;;10.13;8.40;;;19.50;99.90;;;;;;5042477;28;20267;-86
2022/06/06 06:07:42;;;;;;;11.20;8.87;;;19.60;99.90;;;;;;5033297;28;20305;-83
2022/06/06 06:10:09;;;;;;;14.00;8.97;;;19.70;99.90;;;;;;5034531;28;20195;-78
2022/06/06 06:12:42;;;;;;;11.33;8.93;;;19.90;99.90;;;;;;5032898;28;20207;-77
2022/06/06 06:15:20;;;;;;;11.67;9.53;;;20.00;99.90;;;;;;5032719;28;20199;-78
2022/06/06 06:17:52;;;;;;;11.37;9.67;;;20.20;99.90;;;;;;5034191;28;20179;-77
2022/06/06 06:20:23;;;;;;;10.37;8.63;;;20.20;99.90;;;;;;5032632;28;20325;-79
2022/06/06 06:23:00;;;;;;;10.43;8.23;;;20.30;99.90;;;;;;5033116;28;20199;-78
2022/06/06 06:25:31;;;;;;;10.20;7.90;;;20.40;99.90;;;;;;5032801;28;20771;-78
2022/06/06 06:28:04;;;;;;;11.40;8.60;;;20.50;99.90;;;;;;5032370;28;20711;-78
2022/06/06 06:30:40;;;;;;;15.33;8.90;;;20.50;99.90;;;;;;5032641;28;20196;-79
2022/06/06 06:33:25;;;;;;;12.33;8.97;;;20.70;99.90;;;;;;5032810;28;20234;-78
2022/06/06 06:36:26;;;;;;;10.43;7.73;;;20.60;99.90;;;;;;5032468;28;20199;-74
2022/06/06 06:39:09;;;;;;;10.67;7.20;;;20.80;99.90;;;;;;5031810;28;20253;-78
2022/06/06 06:42:14;;;;;;;10.00;7.13;;;20.80;99.90;;;;;;5033698;28;20202;-79
2022/06/06 06:44:52;;;;;;;9.87;6.07;;;20.90;99.90;;;;;;4956591;28;20256;-79
2022/06/06 06:47:28;;;;;;;9.13;6.77;;;21.00;99.90;;;;;;4956562;28;20756;-79
2022/06/06 06:50:16;;;;;;;7.10;6.20;;;21.10;99.90;;;;;;4972495;28;20722;-79
2022/06/06 06:52:49;;;;;;;8.13;6.13;;;21.20;99.90;;;;;;4972724;28;20201;-78
2022/06/06 06:55:27;;;;;;;6.80;5.90;;;21.10;99.90;;;;;;4972434;28;20391;-79
2022/06/06 06:58:09;;;;;;;8.00;5.37;;;21.20;99.90;;;;;;4972944;28;20304;-79
2022/06/06 07:01:01;;;;;;;6.60;5.77;;;21.20;99.90;;;;;;4972619;28;20280;-78
2022/06/06 07:09:58;;;;;;;10.07;5.30;;;21.30;99.90;;;;;;4972507;28;20209;-79
2022/06/06 07:12:31;;;;;;;7.53;5.20;;;21.40;99.90;;;;;;4956054;28;20216;-77
2022/06/06 07:15:39;;;;;;;6.00;5.20;;;21.50;99.90;;;;;;4972155;28;20229;-78
2022/06/06 07:18:10;;;;;;;6.47;5.37;;;21.60;99.90;;;;;;4956573;28;20209;-78
2022/06/06 07:20:42;;;;;;;9.03;5.37;;;21.70;99.90;;;;;;4962697;28;20233;-67
2022/06/06 07:23:11;;;;;;;6.13;5.20;;;21.70;99.90;;;;;;5032025;28;20286;-71
2022/06/06 07:25:41;;;;;;;8.10;4.90;;;21.70;99.90;;;;;;5031820;28;20203;-68
2022/06/06 07:28:18;;;;;;;6.77;5.10;;;21.60;99.90;;;;;;5031577;28;20234;-68
2022/06/06 07:31:07;;;;;;;7.10;5.10;;;21.70;99.90;;;;;;5031657;28;20294;-68
2022/06/06 07:34:03;;;;;;;7.00;5.00;;;21.90;99.90;;;;;;5007917;28;20243;-64
2022/06/06 07:36:43;;;;;;;6.20;4.63;;;21.70;99.90;;;;;;4972389;28;20629;-77
2022/06/06 07:39:34;;;;;;;5.77;5.07;;;21.80;99.90;;;;;;4977732;28;20200;-77
2022/06/06 07:42:33;;;;;;;6.17;5.40;;;21.90;99.90;;;;;;4972794;28;20675;-75
2022/06/06 07:45:17;;;;;;;6.83;4.77;;;22.10;99.90;;;;;;4956079;28;20682;-73
2022/06/06 07:48:05;;;;;;;11.80;4.93;;;22.00;99.90;;;;;;4956750;28;20323;-71
2022/06/06 07:50:57;;;;;;;6.00;5.30;;;22.20;99.90;;;;;;4955709;28;20308;-67
2022/06/06 07:53:44;;;;;;;6.23;4.63;;;22.20;99.90;;;;;;4883772;29;20290;-75
2022/06/06 07:56:34;;;;;;;6.53;4.47;;;22.20;99.90;;;;;;4862481;29;20288;-77
2022/06/06 07:59:38;;;;;;;7.13;5.00;;;22.30;99.90;;;;;;4857430;29;20244;-70
2022/06/06 08:02:20;;;;;;;6.37;5.10;;;22.40;99.90;;;;;;4860271;29;20229;-65
2022/06/06 08:04:58;;;;;;;5.93;5.00;;;22.60;99.90;;;;;;4861121;29;20299;-81
2022/06/06 08:07:28;;;;;;;6.00;4.87;;;22.70;99.90;;;;;;4864018;29;20320;-68
2022/06/06 08:10:08;;;;;;;5.73;4.87;;;22.70;99.90;;;;;;4854146;29;20209;-71
2022/06/06 08:12:46;;;;;;;5.10;4.60;;;22.70;99.90;;;;;;4872484;29;20232;-87
2022/06/06 08:15:43;;;;;;;6.50;4.30;;;22.70;99.90;;;;;;4903123;29;20206;-66
2022/06/06 08:18:16;;;;;;;5.72;4.43;;;22.70;99.90;;;;;;4902456;29;20230;-65
2022/06/06 08:20:57;;;;;;;6.15;4.07;;;22.90;99.90;;;;;;4903751;29;20290;-64
2022/06/06 08:23:27;;;;;;;6.47;4.93;;;23.30;99.90;;;;;;4902603;29;20716;-74
2022/06/06 08:25:55;;;;;;;6.25;4.93;;;24.30;99.90;;;;;;4918214;29;20677;-76
2022/06/06 08:28:23;;;;;;;5.47;4.55;;;25.20;99.90;;;;;;4920231;29;20302;-78
2022/06/06 08:30:50;;;;;;;4.60;4.20;;;25.80;99.30;;;;;;4930817;29;20309;-85
2022/06/06 08:33:17;;;;;;;5.57;4.30;;;26.40;97.50;;;;;;4985399;28;20578;-82
2022/06/06 08:36:03;;;;;;;5.60;4.40;;;26.60;93.20;;;;;;4999279;28;20197;-76
2022/06/06 08:39:06;;;;;;;4.78;4.10;;;26.80;92.40;;;;;;5019265;28;20296;-76
2022/06/06 08:41:55;;;;;;;4.35;3.92;;;27.30;91.50;;;;;;4975622;28;20400;-72
2022/06/06 08:44:49;;;;;;;6.20;3.95;;;27.40;88.70;;;;;;4955671;28;20276;-65
2022/06/06 08:48:02;;;;;;;4.03;3.63;;;27.50;82.80;;;;;;4957513;28;20225;-85
2022/06/06 08:50:50;;;;;;;4.18;3.50;;;27.40;82.30;;;;;;4898814;29;20227;-92
2022/06/06 08:53:54;;;;;;;4.82;3.65;;;27.80;82.40;;;;;;4907578;29;20213;-66
2022/06/06 08:56:29;;;;;;;4.13;3.50;;;27.60;79.00;;;;;;4895446;29;20204;-66
2022/06/06 08:59:14;;;;;;;4.47;3.70;;;27.80;76.30;;;;;;4894591;29;20303;-67
2022/06/06 09:02:03;;;;;;;4.35;3.80;;;28.00;73.60;;;;;;4878734;29;20287;-75
2022/06/06 09:04:32;;;;;;;3.97;3.50;;;28.10;74.90;;;;;;4895435;29;20220;-72
2022/06/06 09:07:11;;;;;;;3.88;3.38;;;28.30;73.60;;;;;;4895963;29;20247;-80
2022/06/06 09:10:15;;;;;;;5.75;3.83;;;28.10;68.20;;;;;;4877978;29;20287;-78
2022/06/06 09:13:04;;;;;;;4.60;4.00;;;27.60;69.70;;;;;;4898046;29;20347;-81
2022/06/06 09:15:34;;;;;;;4.95;4.07;;;27.60;73.60;;;;;;4889234;29;20670;-73
2022/06/06 09:18:19;;;;;;;5.68;4.20;;;27.20;71.80;;;;;;4906204;29;20199;-66
2022/06/06 09:20:49;;;;;;;4.57;4.18;;;27.10;74.20;;;;;;4933371;29;20234;-80
2022/06/06 09:23:40;;;;;;;5.22;4.18;;;27.20;75.80;;;;;;4915765;29;20239;-69
2022/06/06 09:26:08;;;;;;;4.80;4.30;;;27.40;72.10;;;;;;4943888;28;20697;-80
2022/06/06 09:29:12;;;;;;;4.53;4.13;;;27.90;71.30;;;;;;5008849;28;20707;-83
2022/06/06 09:32:17;;;;;;;4.60;4.20;;;28.00;72.40;;;;;;5006356;28;20195;-83
2022/06/06 09:34:56;;;;;;;4.80;4.40;;;28.20;73.70;;;;;;5003257;28;20292;-83
2022/06/06 09:38:10;;;;;;;5.60;4.22;;;28.20;74.50;;;;;;5006857;28;20228;-77
2022/06/06 09:41:10;;;;;;;5.97;4.15;;;28.00;72.90;;;;;;5002978;28;20208;-73
2022/06/06 09:44:13;;;;;;;4.43;4.03;;;28.10;73.90;;;;;;5004905;28;20196;-75
2022/06/06 09:46:55;;;;;;;4.57;4.18;;;28.10;70.90;;;;;;5007988;28;20286;-71
2022/06/06 09:49:40;;;;;;;4.25;3.90;;;27.70;67.80;;;;;;5007582;28;20618;-78
2022/06/06 09:52:33;;;;;;;4.32;3.92;;;27.80;69.60;;;;;;5005177;28;20220;-73
2022/06/06 09:59:02;;;;;;;4.30;3.90;;;28.10;66.70;;;;;;5003379;28;20211;-74
2022/06/06 10:01:44;;;;;;;4.78;3.97;;;27.90;65.40;;;;;;5007082;28;20251;-80
2022/06/06 10:04:31;;;;;;;4.45;3.70;;;28.00;66.40;;;;;;5000248;28;20274;-79
2022/06/06 10:07:20;;;;;;;4.43;4.03;;;27.90;66.20;;;;;;5021809;28;20252;-80
2022/06/06 10:10:51;;;;;;;4.53;3.88;;;28.10;68.20;;;;;;5008416;28;20283;-76
2022/06/06 10:13:23;;;;;;;4.00;3.60;;;28.30;64.90;;;;;;4994824;28;20203;-74
2022/06/06 10:16:13;;;;;;;4.80;3.80;;;28.10;64.40;;;;;;5003508;28;20319;-74
2022/06/06 10:19:12;;;;;;;4.32;3.85;;;28.60;62.80;;;;;;5003550;28;20220;-76
2022/06/06 10:22:24;;;;;;;5.03;4.07;;;29.20;61.50;;;;;;4947412;28;20340;-74
2022/06/06 10:25:11;;;;;;;6.50;3.88;;;29.40;61.50;;;;;;4935019;28;20215;-70
2022/06/06 10:27:53;;;;;;;5.28;4.03;;;29.70;59.90;;;;;;4965519;28;20218;-68
2022/06/06 10:30:32;;;;;;;4.05;3.65;;;30.20;59.30;;;;;;4964137;28;20687;-73
2022/06/06 10:33:17;;;;;;;6.47;4.00;;;30.70;58.40;;;;;;4945861;28;20293;-73
2022/06/06 10:35:59;;;;;;;4.75;4.10;;;30.90;59.40;;;;;;4946211;28;20658;-77
2022/06/06 10:38:50;;;;;;;4.72;4.00;;;31.30;57.70;;;;;;4961926;28;20260;-67
2022/06/06 10:41:43;;;;;;;6.85;4.30;;;31.40;57.40;;;;;;4964600;28;20197;-65
2022/06/06 10:44:19;;;;;;;6.00;4.57;;;31.60;57.20;;;;;;4947384;28;20241;-65
2022/06/06 10:47:13;;;;;;;4.68;4.28;;;31.50;57.20;;;;;;4966177;28;20205;-69
2022/06/06 10:49:52;;;;;;;8.25;4.80;;;31.60;57.40;;;;;;4949328;28;20214;-72
2022/06/06 10:52:56;;;;;;;6.05;4.35;;;31.80;57.30;;;;;;4964106;28;20300;-68
2022/06/06 10:56:01;;;;;;;5.65;4.65;;;31.90;56.70;;;;;;4951381;28;20228;-76
2022/06/06 10:58:46;;;;;;;8.32;5.25;;;31.50;55.20;;;;;;4979549;28;20291;-64
2022/06/06 11:01:16;;;;;;;10.15;5.03;;;31.50;57.00;;;;;;5006695;28;20283;-70
2022/06/06 11:04:05;;;;;;;9.20;4.88;;;31.60;55.20;;;;;;5002330;28;20199;-71
2022/06/06 11:06:55;;;;;;;5.25;4.75;;;31.70;58.40;;;;;;5004734;28;20204;-72
2022/06/06 11:09:40;;;;;;;5.28;4.70;;;32.10;57.60;;;;;;5011817;28;20218;-70
2022/06/06 11:12:32;;;;;;;5.13;4.63;;;32.10;55.50;;;;;;5029381;28;20210;-72
2022/06/06 11:15:03;;;;;;;4.95;4.55;;;31.90;56.90;;;;;;5031636;28;20195;-71
2022/06/06 11:17:51;;;;;;;5.32;4.57;;;31.60;56.90;;;;;;5031328;28;20650;-68
2022/06/06 11:20:55;;;;;;;4.93;4.53;;;32.00;57.50;;;;;;5022109;28;20392;-67
2022/06/06 11:23:50;;;;;;;6.65;4.70;;;31.90;57.20;;;;;;5010654;28;20209;-69
2022/06/06 11:26:35;;;;;;;4.85;4.35;;;31.90;56.80;;;;;;5011482;28;20211;-69
2022/06/06 11:29:30;;;;;;;4.93;4.32;;;31.70;57.40;;;;;;5011855;28;20228;-67
2022/06/06 11:32:12;;;;;;;6.22;4.28;;;31.70;57.90;;;;;;5012044;28;20248;-69
2022/06/06 11:35:05;;;;;;;5.75;4.32;;;31.90;56.50;;;;;;5012147;28;20534;-69
2022/06/06 11:38:06;;;;;;;4.75;4.25;;;32.30;58.00;;;;;;5011848;28;20204;-69
2022/06/06 11:40:57;;;;;;;4.53;4.13;;;32.70;56.20;;;;;;5012119;28;20283;-68
2022/06/06 11:43:32;;;;;;;5.25;4.70;;;32.90;55.30;;;;;;5009304;28;20204;-70
2022/06/06 11:46:22;;;;;;;5.32;4.00;;;33.20;54.40;;;;;;5013121;28;20238;-74
2022/06/06 11:49:13;;;;;;;7.20;3.90;;;33.40;54.50;;;;;;5022647;28;20242;-73
2022/06/06 11:51:56;;;;;;;4.72;3.70;;;33.30;53.50;;;;;;5016945;28;20265;-72
2022/06/06 11:54:44;;;;;;;4.18;3.78;;;33.10;54.90;;;;;;5006373;28;20211;-64
2022/06/06 11:57:20;;;;;;;4.53;4.13;;;33.10;54.00;;;;;;4992345;28;20205;-75
2022/06/06 12:00:24;;;;;;;5.10;3.92;;;32.70;53.80;;;;;;5003069;28;20287;-73
2022/06/06 12:03:15;;;;;;;4.28;3.63;;;33.10;53.60;;;;;;5022980;28;20213;-65
2022/06/06 12:06:03;;;;;;;4.32;3.70;;;33.10;52.80;;;;;;5015015;28;20191;-64
2022/06/06 12:08:36;;;;;;;4.03;3.63;;;33.60;52.40;;;;;;5032154;28;20684;-68
2022/06/06 12:11:37;;;;;;;5.05;3.70;;;33.60;52.20;;;;;;4992194;28;20197;-78
2022/06/06 12:14:11;;;;;;;4.03;3.63;;;33.70;50.30;;;;;;4992215;28;20287;-73
2022/06/06 12:16:56;;;;;;;3.75;3.45;;;33.50;50.10;;;;;;4991888;28;20289;-68
2022/06/06 12:19:38;;;;;;;3.75;3.40;;;33.60;50.80;;;;;;4997489;28;20200;-64
2022/06/06 12:22:20;;;;;;;3.97;3.60;;;33.90;51.70;;;;;;5011371;28;20705;-63
2022/06/06 12:25:07;;;;;;;5.97;3.65;;;34.20;51.00;;;;;;5012724;28;20603;-79
2022/06/06 12:28:08;;;;;;;3.95;3.55;;;34.10;51.00;;;;;;5014844;28;20220;-64
2022/06/06 12:31:26;;;;;;;6.50;3.55;;;34.50;51.20;;;;;;5011730;28;20299;-67
2022/06/06 12:34:08;;;;;;;3.70;3.30;;;34.70;50.60;;;;;;4971088;28;20305;-65
2022/06/06 12:36:43;;;;;;;6.18;3.58;;;35.10;49.60;;;;;;4955060;28;20252;-67
2022/06/06 12:39:33;;;;;;;4.25;3.58;;;35.20;49.60;;;;;;4958741;28;20286;-79
2022/06/06 12:42:23;;;;;;;5.32;3.53;;;35.30;48.80;;;;;;4958905;28;20297;-73
2022/06/06 12:45:37;;;;;;;5.13;3.60;;;35.30;48.10;;;;;;4958744;28;20256;-75
2022/06/06 12:48:07;;;;;;;4.03;3.58;;;35.40;48.40;;;;;;4921007;29;20226;-64
2022/06/06 12:51:04;;;;;;;3.78;3.42;;;35.00;49.20;;;;;;4936291;29;20207;-63
2022/06/06 12:53:59;;;;;;;4.30;3.38;;;34.70;50.10;;;;;;4920045;29;20332;-64
2022/06/06 12:56:54;;;;;;;3.55;3.25;;;34.40;49.70;;;;;;4920661;29;20210;-67
2022/06/06 12:59:24;;;;;;;4.03;3.63;;;33.80;50.20;;;;;;4915447;29;20201;-71
2022/06/06 13:02:00;;;;;;;3.88;3.55;;;33.90;50.70;;;;;;4936344;29;20214;-68
2022/06/06 13:04:48;;;;;;;5.63;3.40;;;34.30;50.00;;;;;;4915304;29;20199;-79
2022/06/06 13:07:33;;;;;;;4.05;3.40;;;34.40;48.90;;;;;;4917291;29;20298;-78
2022/06/06 13:10:37;;;;;;;6.05;3.50;;;34.40;47.60;;;;;;4971149;28;20213;-66
2022/06/06 13:13:23;;;;;;;3.95;3.47;;;34.00;49.20;;;;;;4993755;28;20231;-71
2022/06/06 13:16:52;;;;;;;5.25;3.55;;;33.90;49.50;;;;;;4993702;28;20212;-68
2022/06/06 13:19:43;;;;;;;4.82;3.65;;;34.40;48.90;;;;;;4901064;29;20203;-67
2022/06/06 13:22:39;;;;;;;3.58;3.28;;;34.20;46.00;;;;;;4932151;29;20593;-67
2022/06/06 13:25:43;;;;;;;3.55;3.20;;;33.90;46.50;;;;;;4916146;29;20373;-67
2022/06/06 13:28:11;;;;;;;3.30;3.00;;;34.40;47.50;;;;;;4912513;29;20585;-67
2022/06/06 13:30:44;;;;;;;3.30;3.00;;;35.30;47.10;;;;;;4900695;29;20798;-67
2022/06/06 13:33:45;;;;;;;3.42;3.13;;;35.20;44.30;;;;;;4900133;29;20243;-74
2022/06/06 13:36:31;;;;;;;4.63;3.20;;;35.40;44.20;;;;;;4916205;29;20365;-67
2022/06/06 13:39:16;;;;;;;4.95;3.25;;;35.20;45.70;;;;;;4916432;29;20207;-70
2022/06/06 13:41:56;;;;;;;4.40;3.17;;;33.80;45.30;;;;;;4900799;29;20314;-69
2022/06/06 13:44:57;;;;;;;3.50;2.80;;;34.60;46.50;;;;;;4904077;29;20242;-68
2022/06/06 13:47:36;;;;;;;3.58;2.90;;;35.30;44.60;;;;;;4916293;29;20673;-77
2022/06/06 13:50:24;;;;;;;3.55;2.92;;;34.20;44.10;;;;;;4915144;29;20203;-76
2022/06/06 13:53:11;;;;;;;3.65;2.63;;;35.10;45.10;;;;;;4913208;29;20208;-72
2022/06/06 13:55:39;;;;;;;3.42;2.78;;;35.90;42.50;;;;;;4914731;29;20308;-65
2022/06/06 13:58:25;;;;;;;3.20;2.70;;;36.20;41.70;;;;;;4953834;29;20236;-75
2022/06/06 14:01:13;;;;;;;5.90;2.90;;;36.20;41.40;;;;;;4946621;28;20197;-68
2022/06/06 14:04:10;;;;;;;3.45;2.92;;;35.80;41.80;;;;;;5001479;28;20192;-68
2022/06/06 14:06:52;;;;;;;2.97;2.53;;;35.80;41.00;;;;;;4998416;28;20720;-68
2022/06/06 14:09:41;;;;;;;3.47;2.47;;;34.60;41.40;;;;;;5007302;28;20780;-67
2022/06/06 14:12:50;;;;;;;2.70;2.50;;;34.50;40.70;;;;;;5003320;28;20291;-70
2022/06/06 14:15:21;;;;;;;2.88;2.60;;;35.10;41.10;;;;;;4972584;28;20233;-65
2022/06/06 14:17:59;;;;;;;5.00;2.85;;;35.40;40.40;;;;;;4973375;28;20220;-70